sensor_id;sensor_type;location;lat;lon;timestamp;P1;durP1;ratioP1;P2;durP2;ratioP2
17382;SDS011;8809;51.892;8.384;2023-12-20T00:02:08;13.77;;;9.32;;
17382;SDS011;8809;51.892;8.384;2023-12-20T00:04:35;17.05;;;10.27;;
17382;SDS011;8809;51.892;8.384;2023-12-20T00:07:02;12.85;;;8.32;;
17382;SDS011;8809;51.892;8.384;2023-12-20T00:09:29;14.15;;;9.07;;
17382;SDS011;8809;51.892;8.384;2023-12-20T00:11:56;13.55;;;9.07;;
17382;SDS011;8809;51.892;8.384;2023-12-20T00:14:23;11.60;;;7.63;;
17382;SDS011;8809;51.892;8.384;2023-12-20T00:16:51;14.13;;;8.13;;
17382;SDS011;8809;51.892;8.384;2023-12-20T00:19:18;12.05;;;7.70;;
17382;SDS011;8809;51.892;8.384;2023-12-20T00:21:45;15.52;;;8.70;;
17382;SDS011;8809;51.892;8.384;2023-12-20T00:24:12;13.63;;;8.45;;
17382;SDS011;8809;51.892;8.384;2023-12-20T00:26:39;10.82;;;6.63;;
17382;SDS011;8809;51.892;8.384;2023-12-20T00:29:06;10.68;;;7.25;;
17382;SDS011;8809;51.892;8.384;2023-12-20T00:31:33;11.25;;;6.78;;
17382;SDS011;8809;51.892;8.384;2023-12-20T00:34:01;11.52;;;6.97;;
17382;SDS011;8809;51.892;8.384;2023-12-20T00:36:28;10.43;;;6.65;;
17382;SDS011;8809;51.892;8.384;2023-12-20T00:38:55;9.02;;;6.35;;
17382;SDS011;8809;51.892;8.384;2023-12-20T00:41:22;13.13;;;6.68;;
17382;SDS011;8809;51.892;8.384;2023-12-20T00:43:49;10.18;;;6.60;;
17382;SDS011;8809;51.892;8.384;2023-12-20T00:46:16;9.90;;;6.10;;
17382;SDS011;8809;51.892;8.384;2023-12-20T00:48:43;8.27;;;5.38;;
17382;SDS011;8809;51.892;8.384;2023-12-20T00:51:12;10.52;;;5.75;;
17382;SDS011;8809;51.892;8.384;2023-12-20T00:53:39;9.48;;;5.55;;
17382;SDS011;8809;51.892;8.384;2023-12-20T00:56:06;11.27;;;5.53;;
17382;SDS011;8809;51.892;8.384;2023-12-20T00:58:33;10.50;;;5.75;;
17382;SDS011;8809;51.892;8.384;2023-12-20T01:01:00;7.63;;;5.15;;
17382;SDS011;8809;51.892;8.384;2023-12-20T01:03:27;9.60;;;5.10;;
17382;SDS011;8809;51.892;8.384;2023-12-20T01:05:54;10.25;;;5.05;;
17382;SDS011;8809;51.892;8.384;2023-12-20T01:08:22;8.32;;;4.53;;
17382;SDS011;8809;51.892;8.384;2023-12-20T01:10:49;7.90;;;3.83;;
17382;SDS011;8809;51.892;8.384;2023-12-20T01:13:16;7.50;;;3.63;;
17382;SDS011;8809;51.892;8.384;2023-12-20T01:15:42;6.22;;;3.50;;
17382;SDS011;8809;51.892;8.384;2023-12-20T01:18:09;6.82;;;3.10;;
17382;SDS011;8809;51.892;8.384;2023-12-20T01:20:36;7.32;;;3.30;;
17382;SDS011;8809;51.892;8.384;2023-12-20T01:23:03;4.88;;;3.00;;
17382;SDS011;8809;51.892;8.384;2023-12-20T01:25:32;6.22;;;3.00;;
17382;SDS011;8809;51.892;8.384;2023-12-20T01:27:58;6.90;;;2.85;;
17382;SDS011;8809;51.892;8.384;2023-12-20T01:30:25;4.60;;;2.42;;
17382;SDS011;8809;51.892;8.384;2023-12-20T01:32:52;6.95;;;3.05;;
17382;SDS011;8809;51.892;8.384;2023-12-20T01:35:19;8.75;;;3.85;;
17382;SDS011;8809;51.892;8.384;2023-12-20T01:37:46;6.65;;;3.30;;
17382;SDS011;8809;51.892;8.384;2023-12-20T01:40:13;10.43;;;4.07;;
17382;SDS011;8809;51.892;8.384;2023-12-20T01:42:41;6.28;;;3.38;;
17382;SDS011;8809;51.892;8.384;2023-12-20T01:45:08;7.93;;;3.08;;
17382;SDS011;8809;51.892;8.384;2023-12-20T01:47:36;4.90;;;3.00;;
17382;SDS011;8809;51.892;8.384;2023-12-20T01:50:03;4.38;;;3.20;;
17382;SDS011;8809;51.892;8.384;2023-12-20T01:52:33;7.25;;;3.25;;
17382;SDS011;8809;51.892;8.384;2023-12-20T01:55:01;6.95;;;3.47;;
17382;SDS011;8809;51.892;8.384;2023-12-20T01:57:29;8.48;;;3.70;;
17382;SDS011;8809;51.892;8.384;2023-12-20T01:59:58;8.13;;;3.47;;
17382;SDS011;8809;51.892;8.384;2023-12-20T02:02:25;8.50;;;3.40;;
17382;SDS011;8809;51.892;8.384;2023-12-20T02:04:55;7.45;;;3.70;;
17382;SDS011;8809;51.892;8.384;2023-12-20T02:07:22;8.90;;;3.47;;
17382;SDS011;8809;51.892;8.384;2023-12-20T02:09:49;7.53;;;3.65;;
17382;SDS011;8809;51.892;8.384;2023-12-20T02:12:16;7.53;;;3.50;;
17382;SDS011;8809;51.892;8.384;2023-12-20T02:14:47;8.10;;;3.97;;
17382;SDS011;8809;51.892;8.384;2023-12-20T02:17:16;9.57;;;4.00;;
17382;SDS011;8809;51.892;8.384;2023-12-20T02:19:44;9.63;;;4.20;;
17382;SDS011;8809;51.892;8.384;2023-12-20T02:22:12;5.80;;;3.22;;
17382;SDS011;8809;51.892;8.384;2023-12-20T02:24:39;9.48;;;3.22;;
17382;SDS011;8809;51.892;8.384;2023-12-20T02:27:06;9.13;;;3.92;;
17382;SDS011;8809;51.892;8.384;2023-12-20T02:29:34;9.85;;;4.22;;
17382;SDS011;8809;51.892;8.384;2023-12-20T02:32:01;7.50;;;3.67;;
17382;SDS011;8809;51.892;8.384;2023-12-20T02:34:28;11.73;;;4.40;;
17382;SDS011;8809;51.892;8.384;2023-12-20T02:36:55;12.82;;;4.57;;
17382;SDS011;8809;51.892;8.384;2023-12-20T02:39:23;9.90;;;5.15;;
17382;SDS011;8809;51.892;8.384;2023-12-20T02:41:50;9.57;;;4.80;;
17382;SDS011;8809;51.892;8.384;2023-12-20T02:44:17;13.50;;;5.38;;
17382;SDS011;8809;51.892;8.384;2023-12-20T02:46:44;15.82;;;5.57;;
17382;SDS011;8809;51.892;8.384;2023-12-20T02:49:11;12.63;;;5.53;;
17382;SDS011;8809;51.892;8.384;2023-12-20T02:51:38;12.75;;;5.43;;
17382;SDS011;8809;51.892;8.384;2023-12-20T02:54:05;14.65;;;5.93;;
17382;SDS011;8809;51.892;8.384;2023-12-20T02:56:33;17.88;;;6.53;;
17382;SDS011;8809;51.892;8.384;2023-12-20T02:59:00;15.80;;;6.50;;
17382;SDS011;8809;51.892;8.384;2023-12-20T03:01:28;13.40;;;6.43;;
17382;SDS011;8809;51.892;8.384;2023-12-20T03:03:55;13.52;;;6.07;;
17382;SDS011;8809;51.892;8.384;2023-12-20T03:06:22;15.52;;;7.07;;
17382;SDS011;8809;51.892;8.384;2023-12-20T03:08:49;16.20;;;7.22;;
17382;SDS011;8809;51.892;8.384;2023-12-20T03:11:17;15.90;;;6.65;;
17382;SDS011;8809;51.892;8.384;2023-12-20T03:13:45;14.90;;;6.97;;
17382;SDS011;8809;51.892;8.384;2023-12-20T03:16:12;17.10;;;7.13;;
17382;SDS011;8809;51.892;8.384;2023-12-20T03:18:41;17.77;;;7.45;;
17382;SDS011;8809;51.892;8.384;2023-12-20T03:21:10;13.77;;;6.75;;
17382;SDS011;8809;51.892;8.384;2023-12-20T03:23:37;19.65;;;7.65;;
17382;SDS011;8809;51.892;8.384;2023-12-20T03:26:06;17.83;;;7.80;;
17382;SDS011;8809;51.892;8.384;2023-12-20T03:28:33;17.42;;;7.30;;
17382;SDS011;8809;51.892;8.384;2023-12-20T03:31:02;14.05;;;7.45;;
17382;SDS011;8809;51.892;8.384;2023-12-20T03:33:29;14.20;;;6.07;;
17382;SDS011;8809;51.892;8.384;2023-12-20T03:35:56;14.95;;;7.20;;
17382;SDS011;8809;51.892;8.384;2023-12-20T03:38:23;18.77;;;6.65;;
17382;SDS011;8809;51.892;8.384;2023-12-20T03:40:50;16.73;;;6.72;;
17382;SDS011;8809;51.892;8.384;2023-12-20T03:43:17;17.40;;;6.70;;
17382;SDS011;8809;51.892;8.384;2023-12-20T03:45:44;16.40;;;6.97;;
17382;SDS011;8809;51.892;8.384;2023-12-20T03:48:12;18.40;;;7.00;;
17382;SDS011;8809;51.892;8.384;2023-12-20T03:50:39;14.90;;;6.47;;
17382;SDS011;8809;51.892;8.384;2023-12-20T03:53:06;10.85;;;5.97;;
17382;SDS011;8809;51.892;8.384;2023-12-20T03:55:34;10.93;;;5.50;;
17382;SDS011;8809;51.892;8.384;2023-12-20T03:58:00;12.77;;;5.95;;
17382;SDS011;8809;51.892;8.384;2023-12-20T04:00:27;15.23;;;6.10;;
17382;SDS011;8809;51.892;8.384;2023-12-20T04:02:54;15.05;;;6.63;;
17382;SDS011;8809;51.892;8.384;2023-12-20T04:05:22;16.30;;;6.45;;
17382;SDS011;8809;51.892;8.384;2023-12-20T04:07:49;18.88;;;6.68;;
17382;SDS011;8809;51.892;8.384;2023-12-20T04:10:16;17.17;;;6.32;;
17382;SDS011;8809;51.892;8.384;2023-12-20T04:12:43;14.30;;;6.00;;
17382;SDS011;8809;51.892;8.384;2023-12-20T04:15:18;12.48;;;5.93;;
17382;SDS011;8809;51.892;8.384;2023-12-20T04:17:45;12.20;;;5.63;;
17382;SDS011;8809;51.892;8.384;2023-12-20T04:20:12;15.40;;;6.35;;
17382;SDS011;8809;51.892;8.384;2023-12-20T04:22:40;15.63;;;5.90;;
17382;SDS011;8809;51.892;8.384;2023-12-20T04:25:08;14.77;;;5.78;;
17382;SDS011;8809;51.892;8.384;2023-12-20T04:27:35;18.77;;;5.97;;
17382;SDS011;8809;51.892;8.384;2023-12-20T04:30:02;16.38;;;6.03;;
17382;SDS011;8809;51.892;8.384;2023-12-20T04:32:29;14.93;;;5.80;;
17382;SDS011;8809;51.892;8.384;2023-12-20T04:34:56;18.48;;;6.00;;
17382;SDS011;8809;51.892;8.384;2023-12-20T04:37:24;19.27;;;6.05;;
17382;SDS011;8809;51.892;8.384;2023-12-20T04:39:52;11.50;;;5.57;;
17382;SDS011;8809;51.892;8.384;2023-12-20T04:42:19;13.35;;;4.80;;
17382;SDS011;8809;51.892;8.384;2023-12-20T04:44:45;16.52;;;5.07;;
17382;SDS011;8809;51.892;8.384;2023-12-20T04:47:12;11.75;;;5.53;;
17382;SDS011;8809;51.892;8.384;2023-12-20T04:49:39;17.95;;;5.65;;
17382;SDS011;8809;51.892;8.384;2023-12-20T04:52:06;12.63;;;5.15;;
17382;SDS011;8809;51.892;8.384;2023-12-20T04:54:33;13.82;;;5.05;;
17382;SDS011;8809;51.892;8.384;2023-12-20T04:57:01;20.15;;;5.70;;
17382;SDS011;8809;51.892;8.384;2023-12-20T04:59:28;19.73;;;5.78;;
17382;SDS011;8809;51.892;8.384;2023-12-20T05:01:55;17.65;;;4.95;;
17382;SDS011;8809;51.892;8.384;2023-12-20T05:04:22;16.17;;;5.47;;
17382;SDS011;8809;51.892;8.384;2023-12-20T05:06:49;14.88;;;5.45;;
17382;SDS011;8809;51.892;8.384;2023-12-20T05:09:17;17.85;;;5.22;;
17382;SDS011;8809;51.892;8.384;2023-12-20T05:11:44;15.55;;;5.60;;
17382;SDS011;8809;51.892;8.384;2023-12-20T05:14:12;13.82;;;5.75;;
17382;SDS011;8809;51.892;8.384;2023-12-20T05:16:39;12.52;;;5.20;;
17382;SDS011;8809;51.892;8.384;2023-12-20T05:19:08;15.57;;;5.80;;
17382;SDS011;8809;51.892;8.384;2023-12-20T05:21:36;12.13;;;5.45;;
17382;SDS011;8809;51.892;8.384;2023-12-20T05:24:05;18.27;;;5.70;;
17382;SDS011;8809;51.892;8.384;2023-12-20T05:26:32;15.00;;;5.70;;
17382;SDS011;8809;51.892;8.384;2023-12-20T05:28:58;15.05;;;6.35;;
17382;SDS011;8809;51.892;8.384;2023-12-20T05:31:27;20.33;;;6.82;;
17382;SDS011;8809;51.892;8.384;2023-12-20T05:33:53;20.60;;;5.65;;
17382;SDS011;8809;51.892;8.384;2023-12-20T05:36:19;17.17;;;6.90;;
17382;SDS011;8809;51.892;8.384;2023-12-20T05:38:46;17.00;;;5.93;;
17382;SDS011;8809;51.892;8.384;2023-12-20T05:41:13;16.85;;;6.65;;
17382;SDS011;8809;51.892;8.384;2023-12-20T05:43:43;19.02;;;6.47;;
17382;SDS011;8809;51.892;8.384;2023-12-20T05:46:10;18.92;;;7.07;;
17382;SDS011;8809;51.892;8.384;2023-12-20T05:48:40;16.90;;;6.50;;
17382;SDS011;8809;51.892;8.384;2023-12-20T05:51:07;16.33;;;6.43;;
17382;SDS011;8809;51.892;8.384;2023-12-20T05:53:34;22.60;;;7.15;;
17382;SDS011;8809;51.892;8.384;2023-12-20T05:56:01;12.98;;;6.28;;
17382;SDS011;8809;51.892;8.384;2023-12-20T05:58:28;17.15;;;6.88;;
17382;SDS011;8809;51.892;8.384;2023-12-20T06:00:55;15.75;;;6.63;;
17382;SDS011;8809;51.892;8.384;2023-12-20T06:03:22;15.60;;;7.75;;
17382;SDS011;8809;51.892;8.384;2023-12-20T06:05:50;22.25;;;7.25;;
17382;SDS011;8809;51.892;8.384;2023-12-20T06:08:18;17.67;;;7.45;;
17382;SDS011;8809;51.892;8.384;2023-12-20T06:10:45;19.10;;;6.85;;
17382;SDS011;8809;51.892;8.384;2023-12-20T06:13:12;21.35;;;6.70;;
17382;SDS011;8809;51.892;8.384;2023-12-20T06:15:39;16.67;;;6.35;;
17382;SDS011;8809;51.892;8.384;2023-12-20T06:18:06;16.70;;;6.18;;
17382;SDS011;8809;51.892;8.384;2023-12-20T06:20:33;17.92;;;6.60;;
17382;SDS011;8809;51.892;8.384;2023-12-20T06:23:01;10.77;;;6.40;;
17382;SDS011;8809;51.892;8.384;2023-12-20T06:25:28;13.15;;;6.40;;
17382;SDS011;8809;51.892;8.384;2023-12-20T06:27:55;27.75;;;6.88;;
17382;SDS011;8809;51.892;8.384;2023-12-20T06:30:22;18.90;;;6.90;;
17382;SDS011;8809;51.892;8.384;2023-12-20T06:32:50;16.52;;;6.93;;
17382;SDS011;8809;51.892;8.384;2023-12-20T06:35:18;22.30;;;7.97;;
17382;SDS011;8809;51.892;8.384;2023-12-20T06:37:45;22.40;;;7.38;;
17382;SDS011;8809;51.892;8.384;2023-12-20T06:40:13;19.90;;;7.00;;
17382;SDS011;8809;51.892;8.384;2023-12-20T06:42:41;14.35;;;6.30;;
17382;SDS011;8809;51.892;8.384;2023-12-20T06:45:09;22.67;;;7.40;;
17382;SDS011;8809;51.892;8.384;2023-12-20T06:47:37;16.35;;;7.07;;
17382;SDS011;8809;51.892;8.384;2023-12-20T06:50:04;24.13;;;8.02;;
17382;SDS011;8809;51.892;8.384;2023-12-20T06:52:33;20.30;;;8.05;;
17382;SDS011;8809;51.892;8.384;2023-12-20T06:55:01;19.58;;;6.60;;
17382;SDS011;8809;51.892;8.384;2023-12-20T06:57:29;18.42;;;6.55;;
17382;SDS011;8809;51.892;8.384;2023-12-20T06:59:56;22.30;;;7.97;;
17382;SDS011;8809;51.892;8.384;2023-12-20T07:02:24;17.77;;;6.70;;
17382;SDS011;8809;51.892;8.384;2023-12-20T07:04:50;18.10;;;6.75;;
17382;SDS011;8809;51.892;8.384;2023-12-20T07:07:17;14.52;;;6.60;;
17382;SDS011;8809;51.892;8.384;2023-12-20T07:09:45;19.67;;;6.85;;
17382;SDS011;8809;51.892;8.384;2023-12-20T07:12:11;13.50;;;6.10;;
17382;SDS011;8809;51.892;8.384;2023-12-20T07:14:43;19.75;;;7.03;;
17382;SDS011;8809;51.892;8.384;2023-12-20T07:17:10;17.63;;;6.22;;
17382;SDS011;8809;51.892;8.384;2023-12-20T07:19:38;17.02;;;5.88;;
17382;SDS011;8809;51.892;8.384;2023-12-20T07:22:06;16.27;;;6.78;;
17382;SDS011;8809;51.892;8.384;2023-12-20T07:24:33;17.95;;;6.63;;
17382;SDS011;8809;51.892;8.384;2023-12-20T07:27:00;23.60;;;5.90;;
17382;SDS011;8809;51.892;8.384;2023-12-20T07:29:27;15.43;;;6.13;;
17382;SDS011;8809;51.892;8.384;2023-12-20T07:31:56;18.63;;;5.90;;
17382;SDS011;8809;51.892;8.384;2023-12-20T07:34:23;20.13;;;5.97;;
17382;SDS011;8809;51.892;8.384;2023-12-20T07:36:49;17.10;;;6.05;;
17382;SDS011;8809;51.892;8.384;2023-12-20T07:39:16;18.83;;;5.95;;
17382;SDS011;8809;51.892;8.384;2023-12-20T07:41:45;19.08;;;5.28;;
17382;SDS011;8809;51.892;8.384;2023-12-20T07:44:11;16.60;;;5.90;;
17382;SDS011;8809;51.892;8.384;2023-12-20T07:46:38;17.85;;;5.07;;
17382;SDS011;8809;51.892;8.384;2023-12-20T07:49:07;21.73;;;6.53;;
17382;SDS011;8809;51.892;8.384;2023-12-20T07:51:35;16.75;;;5.47;;
17382;SDS011;8809;51.892;8.384;2023-12-20T07:54:03;16.35;;;5.68;;
17382;SDS011;8809;51.892;8.384;2023-12-20T07:56:30;12.90;;;5.57;;
17382;SDS011;8809;51.892;8.384;2023-12-20T07:58:57;16.23;;;5.40;;
17382;SDS011;8809;51.892;8.384;2023-12-20T08:01:24;13.68;;;6.22;;
17382;SDS011;8809;51.892;8.384;2023-12-20T08:03:53;15.38;;;5.10;;
17382;SDS011;8809;51.892;8.384;2023-12-20T08:06:21;15.38;;;5.68;;
17382;SDS011;8809;51.892;8.384;2023-12-20T08:08:49;20.00;;;5.68;;
17382;SDS011;8809;51.892;8.384;2023-12-20T08:11:16;19.08;;;6.25;;
17382;SDS011;8809;51.892;8.384;2023-12-20T08:13:43;23.35;;;6.00;;
17382;SDS011;8809;51.892;8.384;2023-12-20T08:16:12;15.93;;;5.90;;
17382;SDS011;8809;51.892;8.384;2023-12-20T08:18:41;13.82;;;5.28;;
17382;SDS011;8809;51.892;8.384;2023-12-20T08:21:08;15.80;;;6.00;;
17382;SDS011;8809;51.892;8.384;2023-12-20T08:23:38;16.50;;;6.15;;
17382;SDS011;8809;51.892;8.384;2023-12-20T08:26:05;18.02;;;6.70;;
17382;SDS011;8809;51.892;8.384;2023-12-20T08:28:32;16.15;;;6.35;;
17382;SDS011;8809;51.892;8.384;2023-12-20T08:31:00;16.48;;;6.38;;
17382;SDS011;8809;51.892;8.384;2023-12-20T08:33:27;15.30;;;6.40;;
17382;SDS011;8809;51.892;8.384;2023-12-20T08:35:54;14.13;;;6.90;;
17382;SDS011;8809;51.892;8.384;2023-12-20T08:38:21;13.38;;;6.38;;
17382;SDS011;8809;51.892;8.384;2023-12-20T08:40:49;22.88;;;7.05;;
17382;SDS011;8809;51.892;8.384;2023-12-20T08:43:16;20.40;;;7.88;;
17382;SDS011;8809;51.892;8.384;2023-12-20T08:45:45;20.48;;;9.05;;
17382;SDS011;8809;51.892;8.384;2023-12-20T08:48:12;19.33;;;7.30;;
17382;SDS011;8809;51.892;8.384;2023-12-20T08:50:38;20.13;;;7.72;;
17382;SDS011;8809;51.892;8.384;2023-12-20T08:53:05;23.33;;;8.70;;
17382;SDS011;8809;51.892;8.384;2023-12-20T08:55:32;19.35;;;8.82;;
17382;SDS011;8809;51.892;8.384;2023-12-20T08:58:00;25.02;;;8.70;;
17382;SDS011;8809;51.892;8.384;2023-12-20T09:00:27;20.55;;;8.40;;
17382;SDS011;8809;51.892;8.384;2023-12-20T09:02:55;20.98;;;9.60;;
17382;SDS011;8809;51.892;8.384;2023-12-20T09:05:22;22.17;;;8.45;;
17382;SDS011;8809;51.892;8.384;2023-12-20T09:07:49;22.85;;;9.32;;
17382;SDS011;8809;51.892;8.384;2023-12-20T09:10:16;23.20;;;10.00;;
17382;SDS011;8809;51.892;8.384;2023-12-20T09:12:50;27.48;;;9.60;;
17382;SDS011;8809;51.892;8.384;2023-12-20T09:15:21;17.70;;;9.35;;
17382;SDS011;8809;51.892;8.384;2023-12-20T09:17:50;23.25;;;10.57;;
17382;SDS011;8809;51.892;8.384;2023-12-20T09:20:17;21.80;;;10.77;;
17382;SDS011;8809;51.892;8.384;2023-12-20T09:22:44;20.52;;;10.15;;
17382;SDS011;8809;51.892;8.384;2023-12-20T09:25:12;20.63;;;10.05;;
17382;SDS011;8809;51.892;8.384;2023-12-20T09:27:40;24.45;;;10.75;;
17382;SDS011;8809;51.892;8.384;2023-12-20T09:30:07;22.88;;;10.20;;
17382;SDS011;8809;51.892;8.384;2023-12-20T09:32:35;18.42;;;9.52;;
17382;SDS011;8809;51.892;8.384;2023-12-20T09:35:02;20.15;;;10.27;;
17382;SDS011;8809;51.892;8.384;2023-12-20T09:37:31;21.80;;;10.10;;
17382;SDS011;8809;51.892;8.384;2023-12-20T09:39:57;21.65;;;8.88;;
17382;SDS011;8809;51.892;8.384;2023-12-20T09:42:43;17.08;;;8.98;;
17382;SDS011;8809;51.892;8.384;2023-12-20T09:45:16;19.65;;;9.43;;
17382;SDS011;8809;51.892;8.384;2023-12-20T09:47:49;23.50;;;8.98;;
17382;SDS011;8809;51.892;8.384;2023-12-20T09:50:21;22.38;;;8.98;;
17382;SDS011;8809;51.892;8.384;2023-12-20T09:52:49;22.65;;;8.90;;
17382;SDS011;8809;51.892;8.384;2023-12-20T09:55:17;20.55;;;8.63;;
17382;SDS011;8809;51.892;8.384;2023-12-20T09:57:45;24.65;;;8.98;;
17382;SDS011;8809;51.892;8.384;2023-12-20T10:00:12;19.83;;;8.15;;
17382;SDS011;8809;51.892;8.384;2023-12-20T10:02:45;20.80;;;8.27;;
17382;SDS011;8809;51.892;8.384;2023-12-20T10:05:18;16.95;;;7.93;;
17382;SDS011;8809;51.892;8.384;2023-12-20T10:07:47;18.60;;;8.25;;
17382;SDS011;8809;51.892;8.384;2023-12-20T10:10:14;14.68;;;7.93;;
17382;SDS011;8809;51.892;8.384;2023-12-20T10:12:41;23.23;;;8.52;;
17382;SDS011;8809;51.892;8.384;2023-12-20T10:15:28;17.70;;;7.88;;
17382;SDS011;8809;51.892;8.384;2023-12-20T10:17:56;21.27;;;8.00;;
17382;SDS011;8809;51.892;8.384;2023-12-20T10:20:25;19.88;;;8.10;;
17382;SDS011;8809;51.892;8.384;2023-12-20T10:22:54;15.07;;;7.55;;
17382;SDS011;8809;51.892;8.384;2023-12-20T10:25:21;13.30;;;7.63;;
17382;SDS011;8809;51.892;8.384;2023-12-20T10:27:49;22.10;;;7.60;;
17382;SDS011;8809;51.892;8.384;2023-12-20T10:30:17;21.42;;;7.55;;
17382;SDS011;8809;51.892;8.384;2023-12-20T10:32:44;19.50;;;7.90;;
17382;SDS011;8809;51.892;8.384;2023-12-20T10:35:11;19.00;;;7.13;;
17382;SDS011;8809;51.892;8.384;2023-12-20T10:37:39;17.33;;;6.88;;
17382;SDS011;8809;51.892;8.384;2023-12-20T10:40:07;25.27;;;8.70;;
17382;SDS011;8809;51.892;8.384;2023-12-20T10:42:36;19.73;;;7.18;;
17382;SDS011;8809;51.892;8.384;2023-12-20T10:45:04;17.05;;;6.57;;
17382;SDS011;8809;51.892;8.384;2023-12-20T10:47:31;16.35;;;6.55;;
17382;SDS011;8809;51.892;8.384;2023-12-20T10:49:59;21.02;;;7.15;;
17382;SDS011;8809;51.892;8.384;2023-12-20T10:52:28;16.10;;;6.50;;
17382;SDS011;8809;51.892;8.384;2023-12-20T10:55:01;17.15;;;6.55;;
17382;SDS011;8809;51.892;8.384;2023-12-20T10:57:28;21.52;;;7.20;;
17382;SDS011;8809;51.892;8.384;2023-12-20T10:59:56;13.98;;;5.85;;
17382;SDS011;8809;51.892;8.384;2023-12-20T11:02:29;14.63;;;6.15;;
17382;SDS011;8809;51.892;8.384;2023-12-20T11:04:59;15.15;;;6.05;;
17382;SDS011;8809;51.892;8.384;2023-12-20T11:07:35;12.30;;;6.63;;
17382;SDS011;8809;51.892;8.384;2023-12-20T11:10:12;17.65;;;6.53;;
17382;SDS011;8809;51.892;8.384;2023-12-20T11:12:46;13.70;;;6.65;;
17382;SDS011;8809;51.892;8.384;2023-12-20T11:15:19;12.90;;;5.88;;
17382;SDS011;8809;51.892;8.384;2023-12-20T11:17:54;15.02;;;5.40;;
17382;SDS011;8809;51.892;8.384;2023-12-20T11:20:34;15.68;;;5.47;;
17382;SDS011;8809;51.892;8.384;2023-12-20T11:23:03;16.40;;;5.55;;
17382;SDS011;8809;51.892;8.384;2023-12-20T11:25:35;12.90;;;5.70;;
17382;SDS011;8809;51.892;8.384;2023-12-20T11:28:14;10.75;;;5.18;;
17382;SDS011;8809;51.892;8.384;2023-12-20T11:30:46;16.80;;;5.50;;
17382;SDS011;8809;51.892;8.384;2023-12-20T11:33:14;11.80;;;5.30;;
17382;SDS011;8809;51.892;8.384;2023-12-20T11:35:42;11.35;;;5.18;;
17382;SDS011;8809;51.892;8.384;2023-12-20T11:38:09;15.57;;;5.13;;
17382;SDS011;8809;51.892;8.384;2023-12-20T11:40:38;14.52;;;4.95;;
17382;SDS011;8809;51.892;8.384;2023-12-20T11:43:07;9.43;;;5.20;;
17382;SDS011;8809;51.892;8.384;2023-12-20T11:45:34;12.73;;;5.38;;
17382;SDS011;8809;51.892;8.384;2023-12-20T11:48:02;20.23;;;5.15;;
17382;SDS011;8809;51.892;8.384;2023-12-20T11:50:32;15.98;;;5.22;;
17382;SDS011;8809;51.892;8.384;2023-12-20T11:52:59;15.25;;;4.75;;
17382;SDS011;8809;51.892;8.384;2023-12-20T11:55:26;8.18;;;3.55;;
17382;SDS011;8809;51.892;8.384;2023-12-20T11:57:54;10.25;;;4.03;;
17382;SDS011;8809;51.892;8.384;2023-12-20T12:00:21;10.90;;;3.35;;
17382;SDS011;8809;51.892;8.384;2023-12-20T12:02:55;7.82;;;3.63;;
17382;SDS011;8809;51.892;8.384;2023-12-20T12:05:23;9.63;;;4.28;;
17382;SDS011;8809;51.892;8.384;2023-12-20T12:07:52;16.27;;;4.25;;
17382;SDS011;8809;51.892;8.384;2023-12-20T12:10:19;11.38;;;4.75;;
17382;SDS011;8809;51.892;8.384;2023-12-20T12:12:46;10.38;;;3.90;;
17382;SDS011;8809;51.892;8.384;2023-12-20T12:15:15;9.50;;;3.80;;
17382;SDS011;8809;51.892;8.384;2023-12-20T12:17:42;10.02;;;4.40;;
17382;SDS011;8809;51.892;8.384;2023-12-20T12:20:10;10.63;;;3.85;;
17382;SDS011;8809;51.892;8.384;2023-12-20T12:22:38;11.52;;;3.85;;
17382;SDS011;8809;51.892;8.384;2023-12-20T12:25:11;10.30;;;4.28;;
17382;SDS011;8809;51.892;8.384;2023-12-20T12:27:39;10.77;;;3.58;;
17382;SDS011;8809;51.892;8.384;2023-12-20T12:30:08;12.07;;;3.90;;
17382;SDS011;8809;51.892;8.384;2023-12-20T12:32:39;11.50;;;4.45;;
17382;SDS011;8809;51.892;8.384;2023-12-20T12:35:09;11.35;;;4.13;;
17382;SDS011;8809;51.892;8.384;2023-12-20T12:37:37;11.18;;;4.10;;
17382;SDS011;8809;51.892;8.384;2023-12-20T12:40:05;13.30;;;4.70;;
17382;SDS011;8809;51.892;8.384;2023-12-20T12:42:33;13.25;;;4.50;;
17382;SDS011;8809;51.892;8.384;2023-12-20T12:45:01;12.90;;;4.25;;
17382;SDS011;8809;51.892;8.384;2023-12-20T12:47:29;10.98;;;4.40;;
17382;SDS011;8809;51.892;8.384;2023-12-20T12:49:57;13.48;;;3.95;;
17382;SDS011;8809;51.892;8.384;2023-12-20T12:52:24;12.60;;;4.70;;
17382;SDS011;8809;51.892;8.384;2023-12-20T12:54:52;11.27;;;3.92;;
17382;SDS011;8809;51.892;8.384;2023-12-20T12:57:19;8.88;;;3.92;;
17382;SDS011;8809;51.892;8.384;2023-12-20T12:59:46;11.93;;;3.70;;
17382;SDS011;8809;51.892;8.384;2023-12-20T13:02:13;15.38;;;4.78;;
17382;SDS011;8809;51.892;8.384;2023-12-20T13:04:41;15.13;;;4.53;;
17382;SDS011;8809;51.892;8.384;2023-12-20T13:07:09;10.57;;;3.90;;
17382;SDS011;8809;51.892;8.384;2023-12-20T13:09:37;13.00;;;4.43;;
17382;SDS011;8809;51.892;8.384;2023-12-20T13:12:05;16.75;;;4.97;;
17382;SDS011;8809;51.892;8.384;2023-12-20T13:14:33;12.07;;;4.22;;
17382;SDS011;8809;51.892;8.384;2023-12-20T13:17:02;11.13;;;3.97;;
17382;SDS011;8809;51.892;8.384;2023-12-20T13:19:30;9.25;;;3.80;;
17382;SDS011;8809;51.892;8.384;2023-12-20T13:21:57;11.60;;;3.33;;
17382;SDS011;8809;51.892;8.384;2023-12-20T13:24:25;11.15;;;3.90;;
17382;SDS011;8809;51.892;8.384;2023-12-20T13:26:54;10.20;;;3.60;;
17382;SDS011;8809;51.892;8.384;2023-12-20T13:29:21;18.08;;;4.30;;
17382;SDS011;8809;51.892;8.384;2023-12-20T13:31:49;15.18;;;4.55;;
17382;SDS011;8809;51.892;8.384;2023-12-20T13:34:16;8.70;;;3.08;;
17382;SDS011;8809;51.892;8.384;2023-12-20T13:36:43;10.13;;;2.83;;
17382;SDS011;8809;51.892;8.384;2023-12-20T13:39:12;11.80;;;3.85;;
17382;SDS011;8809;51.892;8.384;2023-12-20T13:41:41;7.85;;;3.85;;
17382;SDS011;8809;51.892;8.384;2023-12-20T13:44:08;6.28;;;1.95;;
17382;SDS011;8809;51.892;8.384;2023-12-20T13:46:37;4.93;;;1.80;;
17382;SDS011;8809;51.892;8.384;2023-12-20T13:49:04;4.70;;;1.80;;
17382;SDS011;8809;51.892;8.384;2023-12-20T13:51:33;3.35;;;1.50;;
17382;SDS011;8809;51.892;8.384;2023-12-20T13:54:00;3.65;;;1.20;;
17382;SDS011;8809;51.892;8.384;2023-12-20T13:56:30;3.30;;;1.13;;
17382;SDS011;8809;51.892;8.384;2023-12-20T13:58:59;2.95;;;1.20;;
17382;SDS011;8809;51.892;8.384;2023-12-20T14:01:26;3.22;;;1.08;;
17382;SDS011;8809;51.892;8.384;2023-12-20T14:03:53;2.53;;;1.10;;
17382;SDS011;8809;51.892;8.384;2023-12-20T14:06:20;3.50;;;1.33;;
17382;SDS011;8809;51.892;8.384;2023-12-20T14:08:47;3.47;;;1.30;;
17382;SDS011;8809;51.892;8.384;2023-12-20T14:11:17;3.35;;;1.05;;
17382;SDS011;8809;51.892;8.384;2023-12-20T14:13:44;2.03;;;1.13;;
17382;SDS011;8809;51.892;8.384;2023-12-20T14:16:13;1.40;;;1.00;;
17382;SDS011;8809;51.892;8.384;2023-12-20T14:18:42;2.72;;;0.93;;
17382;SDS011;8809;51.892;8.384;2023-12-20T14:21:09;1.77;;;1.52;;
17382;SDS011;8809;51.892;8.384;2023-12-20T14:23:35;1.75;;;1.00;;
17382;SDS011;8809;51.892;8.384;2023-12-20T14:26:03;5.28;;;1.33;;
17382;SDS011;8809;51.892;8.384;2023-12-20T14:28:30;2.08;;;1.30;;
17382;SDS011;8809;51.892;8.384;2023-12-20T14:30:57;3.03;;;1.27;;
17382;SDS011;8809;51.892;8.384;2023-12-20T14:33:25;3.20;;;1.42;;
17382;SDS011;8809;51.892;8.384;2023-12-20T14:35:52;2.80;;;1.40;;
17382;SDS011;8809;51.892;8.384;2023-12-20T14:38:19;3.95;;;1.60;;
17382;SDS011;8809;51.892;8.384;2023-12-20T14:40:46;3.63;;;1.30;;
17382;SDS011;8809;51.892;8.384;2023-12-20T14:43:13;2.80;;;1.58;;
17382;SDS011;8809;51.892;8.384;2023-12-20T14:45:42;3.72;;;1.30;;
17382;SDS011;8809;51.892;8.384;2023-12-20T14:48:09;2.72;;;1.27;;
17382;SDS011;8809;51.892;8.384;2023-12-20T14:50:38;2.60;;;1.45;;
17382;SDS011;8809;51.892;8.384;2023-12-20T14:53:08;4.53;;;1.20;;
17382;SDS011;8809;51.892;8.384;2023-12-20T14:55:35;2.70;;;1.10;;